sensor_id;sensor_type;location;lat;lon;timestamp;pressure;altitude;pressure_sealevel;temperature;humidity
78198;BME280;67472;51.554;7.812;2023-08-20T00:02:25;101492.03;;;20.04;100.00
78198;BME280;67472;51.554;7.812;2023-08-20T00:05:15;101500.56;;;20.07;100.00
78198;BME280;67472;51.554;7.812;2023-08-20T00:08:01;101506.75;;;20.00;100.00
78198;BME280;67472;51.554;7.812;2023-08-20T00:10:47;101504.59;;;20.03;100.00
78198;BME280;67472;51.554;7.812;2023-08-20T00:13:33;101497.06;;;20.07;100.00
78198;BME280;67472;51.554;7.812;2023-08-20T00:16:21;101503.06;;;20.09;100.00
78198;BME280;67472;51.554;7.812;2023-08-20T00:19:08;101502.44;;;19.91;100.00
78198;BME280;67472;51.554;7.812;2023-08-20T00:21:55;101507.78;;;19.91;100.00
78198;BME280;67472;51.554;7.812;2023-08-20T00:24:42;101513.63;;;19.94;100.00
78198;BME280;67472;51.554;7.812;2023-08-20T00:27:28;101516.97;;;19.80;100.00
78198;BME280;67472;51.554;7.812;2023-08-20T00:30:14;101525.03;;;19.72;100.00
78198;BME280;67472;51.554;7.812;2023-08-20T00:33:02;101543.28;;;19.77;100.00
78198;BME280;67472;51.554;7.812;2023-08-20T00:35:48;101544.31;;;19.67;100.00
78198;BME280;67472;51.554;7.812;2023-08-20T00:38:34;101547.09;;;19.50;100.00
78198;BME280;67472;51.554;7.812;2023-08-20T00:41:20;101555.50;;;19.63;100.00
78198;BME280;67472;51.554;7.812;2023-08-20T00:44:06;101573.28;;;19.72;100.00
78198;BME280;67472;51.554;7.812;2023-08-20T00:46:53;101575.44;;;19.68;100.00
78198;BME280;67472;51.554;7.812;2023-08-20T00:49:40;101570.09;;;19.68;100.00
78198;BME280;67472;51.554;7.812;2023-08-20T00:52:28;101573.47;;;19.79;100.00
78198;BME280;67472;51.554;7.812;2023-08-20T00:55:14;101583.16;;;19.80;100.00
78198;BME280;67472;51.554;7.812;2023-08-20T00:58:00;101582.69;;;19.92;100.00
78198;BME280;67472;51.554;7.812;2023-08-20T01:00:47;101585.38;;;19.92;100.00
78198;BME280;67472;51.554;7.812;2023-08-20T01:03:33;101583.53;;;19.85;100.00
78198;BME280;67472;51.554;7.812;2023-08-20T01:06:27;101584.53;;;19.76;100.00
78198;BME280;67472;51.554;7.812;2023-08-20T01:09:28;101579.28;;;19.66;100.00
78198;BME280;67472;51.554;7.812;2023-08-20T01:12:19;101582.34;;;19.79;100.00
78198;BME280;67472;51.554;7.812;2023-08-20T01:15:06;101579.63;;;19.71;100.00
78198;BME280;67472;51.554;7.812;2023-08-20T01:17:58;101577.97;;;19.70;100.00
78198;BME280;67472;51.554;7.812;2023-08-20T01:20:50;101560.38;;;19.67;100.00
78198;BME280;67472;51.554;7.812;2023-08-20T01:23:53;101564.34;;;19.47;100.00
78198;BME280;67472;51.554;7.812;2023-08-20T01:26:59;101564.19;;;19.57;100.00
78198;BME280;67472;51.554;7.812;2023-08-20T01:29:48;101570.25;;;19.67;100.00
78198;BME280;67472;51.554;7.812;2023-08-20T01:32:35;101581.78;;;19.59;100.00
78198;BME280;67472;51.554;7.812;2023-08-20T01:35:24;101591.34;;;19.62;100.00
78198;BME280;67472;51.554;7.812;2023-08-20T01:38:20;101591.84;;;19.65;100.00
78198;BME280;67472;51.554;7.812;2023-08-20T01:41:07;101589.69;;;19.61;100.00
78198;BME280;67472;51.554;7.812;2023-08-20T01:43:53;101596.69;;;19.62;100.00
78198;BME280;67472;51.554;7.812;2023-08-20T01:46:41;101600.94;;;19.72;100.00
78198;BME280;67472;51.554;7.812;2023-08-20T01:49:27;101611.66;;;19.72;100.00
78198;BME280;67472;51.554;7.812;2023-08-20T01:52:14;101617.16;;;19.71;100.00
78198;BME280;67472;51.554;7.812;2023-08-20T01:55:00;101627.75;;;19.81;100.00
78198;BME280;67472;51.554;7.812;2023-08-20T01:57:46;101641.38;;;19.87;100.00
78198;BME280;67472;51.554;7.812;2023-08-20T02:00:32;101646.06;;;19.93;100.00
78198;BME280;67472;51.554;7.812;2023-08-20T02:03:20;101656.16;;;19.99;100.00
78198;BME280;67472;51.554;7.812;2023-08-20T02:06:06;101665.00;;;20.00;100.00
78198;BME280;67472;51.554;7.812;2023-08-20T02:08:54;101667.03;;;20.06;100.00
78198;BME280;67472;51.554;7.812;2023-08-20T02:11:42;101674.44;;;20.12;100.00
78198;BME280;67472;51.554;7.812;2023-08-20T02:14:28;101692.69;;;20.08;100.00
78198;BME280;67472;51.554;7.812;2023-08-20T02:17:18;101693.22;;;20.12;100.00
78198;BME280;67472;51.554;7.812;2023-08-20T02:20:06;101686.53;;;20.16;100.00
78198;BME280;67472;51.554;7.812;2023-08-20T02:22:54;101679.16;;;20.18;100.00
78198;BME280;67472;51.554;7.812;2023-08-20T02:25:40;101678.66;;;20.22;100.00
78198;BME280;67472;51.554;7.812;2023-08-20T02:28:27;101668.19;;;19.95;100.00
78198;BME280;67472;51.554;7.812;2023-08-20T02:31:14;101668.03;;;19.97;100.00
78198;BME280;67472;51.554;7.812;2023-08-20T02:34:00;101665.53;;;20.03;100.00
78198;BME280;67472;51.554;7.812;2023-08-20T02:36:47;101675.47;;;20.11;100.00
78198;BME280;67472;51.554;7.812;2023-08-20T02:39:34;101679.13;;;20.10;100.00
78198;BME280;67472;51.554;7.812;2023-08-20T02:42:20;101686.19;;;20.11;100.00
78198;BME280;67472;51.554;7.812;2023-08-20T02:45:07;101681.31;;;20.14;100.00
78198;BME280;67472;51.554;7.812;2023-08-20T02:47:53;101687.34;;;20.08;100.00
78198;BME280;67472;51.554;7.812;2023-08-20T02:50:39;101696.06;;;20.02;100.00
78198;BME280;67472;51.554;7.812;2023-08-20T02:53:27;101704.78;;;20.12;100.00
78198;BME280;67472;51.554;7.812;2023-08-20T02:56:13;101707.47;;;20.12;100.00
78198;BME280;67472;51.554;7.812;2023-08-20T02:58:59;101709.50;;;20.10;100.00
78198;BME280;67472;51.554;7.812;2023-08-20T03:01:45;101713.84;;;20.11;100.00
78198;BME280;67472;51.554;7.812;2023-08-20T03:04:31;101721.09;;;20.19;100.00
78198;BME280;67472;51.554;7.812;2023-08-20T03:07:18;101722.25;;;20.16;100.00
78198;BME280;67472;51.554;7.812;2023-08-20T03:10:06;101732.16;;;20.24;100.00
78198;BME280;67472;51.554;7.812;2023-08-20T03:12:52;101742.03;;;20.23;100.00
78198;BME280;67472;51.554;7.812;2023-08-20T03:15:38;101749.56;;;20.20;100.00
78198;BME280;67472;51.554;7.812;2023-08-20T03:18:24;101739.53;;;20.14;100.00
78198;BME280;67472;51.554;7.812;2023-08-20T03:21:10;101756.69;;;20.29;100.00
78198;BME280;67472;51.554;7.812;2023-08-20T03:23:56;101763.28;;;20.43;100.00
78198;BME280;67472;51.554;7.812;2023-08-20T03:26:44;101759.25;;;20.55;100.00
78198;BME280;67472;51.554;7.812;2023-08-20T03:29:31;101757.91;;;20.51;100.00
78198;BME280;67472;51.554;7.812;2023-08-20T03:32:18;101754.06;;;20.61;100.00
78198;BME280;67472;51.554;7.812;2023-08-20T03:35:05;101739.13;;;20.51;100.00
78198;BME280;67472;51.554;7.812;2023-08-20T03:37:51;101728.53;;;20.49;100.00
78198;BME280;67472;51.554;7.812;2023-08-20T03:40:37;101725.72;;;20.51;100.00
78198;BME280;67472;51.554;7.812;2023-08-20T03:43:25;101721.19;;;20.51;100.00
78198;BME280;67472;51.554;7.812;2023-08-20T03:46:11;101724.38;;;20.63;100.00
78198;BME280;67472;51.554;7.812;2023-08-20T03:48:57;101716.16;;;20.64;100.00
78198;BME280;67472;51.554;7.812;2023-08-20T03:51:43;101720.19;;;20.68;100.00
78198;BME280;67472;51.554;7.812;2023-08-20T03:54:29;101705.91;;;20.68;100.00
78198;BME280;67472;51.554;7.812;2023-08-20T03:57:16;101701.41;;;20.68;100.00
78198;BME280;67472;51.554;7.812;2023-08-20T04:00:05;101697.16;;;20.58;100.00
78198;BME280;67472;51.554;7.812;2023-08-20T04:03:00;101699.19;;;20.64;100.00
78198;BME280;67472;51.554;7.812;2023-08-20T04:05:47;101708.59;;;20.60;100.00
78198;BME280;67472;51.554;7.812;2023-08-20T04:08:35;101709.78;;;20.57;100.00
78198;BME280;67472;51.554;7.812;2023-08-20T04:11:21;101721.00;;;20.37;100.00
78198;BME280;67472;51.554;7.812;2023-08-20T04:14:07;101719.97;;;20.38;100.00
78198;BME280;67472;51.554;7.812;2023-08-20T04:16:54;101718.31;;;20.37;100.00
78198;BME280;67472;51.554;7.812;2023-08-20T04:19:40;101715.53;;;20.20;100.00
78198;BME280;67472;51.554;7.812;2023-08-20T04:22:27;101722.56;;;20.05;100.00
78198;BME280;67472;51.554;7.812;2023-08-20T04:25:16;101731.09;;;20.09;100.00
78198;BME280;67472;51.554;7.812;2023-08-20T04:28:03;101739.00;;;20.10;100.00
78198;BME280;67472;51.554;7.812;2023-08-20T04:30:52;101748.13;;;20.25;100.00
78198;BME280;67472;51.554;7.812;2023-08-20T04:33:41;101755.88;;;20.37;100.00
78198;BME280;67472;51.554;7.812;2023-08-20T04:36:27;101761.56;;;20.34;100.00
78198;BME280;67472;51.554;7.812;2023-08-20T04:39:13;101765.44;;;20.39;100.00
78198;BME280;67472;51.554;7.812;2023-08-20T04:42:04;101765.47;;;20.47;100.00
78198;BME280;67472;51.554;7.812;2023-08-20T04:44:50;101774.53;;;20.54;100.00
78198;BME280;67472;51.554;7.812;2023-08-20T04:47:37;101783.78;;;20.60;100.00
78198;BME280;67472;51.554;7.812;2023-08-20T04:50:24;101782.47;;;20.72;100.00
78198;BME280;67472;51.554;7.812;2023-08-20T04:53:10;101765.66;;;20.62;100.00
78198;BME280;67472;51.554;7.812;2023-08-20T04:55:58;101765.84;;;20.68;100.00
78198;BME280;67472;51.554;7.812;2023-08-20T04:58:44;101777.09;;;20.80;100.00
78198;BME280;67472;51.554;7.812;2023-08-20T05:01:34;101766.34;;;20.80;100.00
78198;BME280;67472;51.554;7.812;2023-08-20T05:04:20;101765.31;;;20.81;100.00
78198;BME280;67472;51.554;7.812;2023-08-20T05:07:08;101770.69;;;20.81;100.00
78198;BME280;67472;51.554;7.812;2023-08-20T05:09:54;101755.75;;;20.78;100.00
78198;BME280;67472;51.554;7.812;2023-08-20T05:12:40;101752.59;;;20.75;100.00
78198;BME280;67472;51.554;7.812;2023-08-20T05:15:27;101752.59;;;20.75;100.00
78198;BME280;67472;51.554;7.812;2023-08-20T05:18:13;101758.81;;;20.83;100.00
78198;BME280;67472;51.554;7.812;2023-08-20T05:20:59;101764.50;;;20.97;100.00
78198;BME280;67472;51.554;7.812;2023-08-20T05:23:46;101766.72;;;21.01;100.00
78198;BME280;67472;51.554;7.812;2023-08-20T05:26:34;101766.56;;;21.11;100.00
78198;BME280;67472;51.554;7.812;2023-08-20T05:29:20;101780.47;;;21.22;100.00
78198;BME280;67472;51.554;7.812;2023-08-20T05:32:07;101780.31;;;21.32;100.00
78198;BME280;67472;51.554;7.812;2023-08-20T05:34:53;101773.59;;;21.28;100.00
78198;BME280;67472;51.554;7.812;2023-08-20T05:37:40;101766.38;;;21.20;100.00
78198;BME280;67472;51.554;7.812;2023-08-20T05:40:27;101771.94;;;21.27;100.00
78198;BME280;67472;51.554;7.812;2023-08-20T05:43:13;101790.75;;;21.27;100.00
78198;BME280;67472;51.554;7.812;2023-08-20T05:46:00;101789.88;;;21.34;100.00
78198;BME280;67472;51.554;7.812;2023-08-20T05:48:46;101789.03;;;21.34;100.00
78198;BME280;67472;51.554;7.812;2023-08-20T05:51:32;101798.78;;;21.43;100.00
78198;BME280;67472;51.554;7.812;2023-08-20T05:54:18;101794.06;;;21.53;100.00
78198;BME280;67472;51.554;7.812;2023-08-20T05:57:06;101781.47;;;21.46;100.00
78198;BME280;67472;51.554;7.812;2023-08-20T05:59:53;101789.69;;;21.52;100.00
78198;BME280;67472;51.554;7.812;2023-08-20T06:02:39;101766.50;;;21.43;100.00
78198;BME280;67472;51.554;7.812;2023-08-20T06:05:26;101767.03;;;21.47;100.00
78198;BME280;67472;51.554;7.812;2023-08-20T06:08:13;101765.00;;;21.49;100.00
78198;BME280;67472;51.554;7.812;2023-08-20T06:10:59;101760.16;;;21.44;100.00
78198;BME280;67472;51.554;7.812;2023-08-20T06:13:46;101761.81;;;21.53;100.00
78198;BME280;67472;51.554;7.812;2023-08-20T06:16:33;101756.25;;;21.55;100.00
78198;BME280;67472;51.554;7.812;2023-08-20T06:19:18;101756.41;;;21.61;100.00
78198;BME280;67472;51.554;7.812;2023-08-20T06:22:05;101750.53;;;21.58;100.00
78198;BME280;67472;51.554;7.812;2023-08-20T06:24:51;101751.84;;;21.70;100.00
78198;BME280;67472;51.554;7.812;2023-08-20T06:27:37;101748.59;;;21.82;100.00
78198;BME280;67472;51.554;7.812;2023-08-20T06:30:24;101735.31;;;21.89;100.00
78198;BME280;67472;51.554;7.812;2023-08-20T06:33:11;101720.47;;;22.01;100.00
78198;BME280;67472;51.554;7.812;2023-08-20T06:35:57;101700.63;;;22.02;100.00
78198;BME280;67472;51.554;7.812;2023-08-20T06:38:43;101686.97;;;22.04;100.00
78198;BME280;67472;51.554;7.812;2023-08-20T06:41:29;101677.34;;;22.09;100.00
78198;BME280;67472;51.554;7.812;2023-08-20T06:44:15;101668.88;;;22.20;100.00
78198;BME280;67472;51.554;7.812;2023-08-20T06:47:03;101656.56;;;22.26;100.00
78198;BME280;67472;51.554;7.812;2023-08-20T06:49:50;101638.72;;;22.47;100.00
78198;BME280;67472;51.554;7.812;2023-08-20T06:52:36;101640.56;;;22.70;100.00
78198;BME280;67472;51.554;7.812;2023-08-20T06:55:23;101617.00;;;22.49;100.00
78198;BME280;67472;51.554;7.812;2023-08-20T06:58:09;101606.06;;;22.88;100.00
78198;BME280;67472;51.554;7.812;2023-08-20T07:00:55;101586.72;;;22.99;100.00
78198;BME280;67472;51.554;7.812;2023-08-20T07:03:43;101567.22;;;23.12;100.00
78198;BME280;67472;51.554;7.812;2023-08-20T07:06:30;101554.06;;;23.38;100.00
78198;BME280;67472;51.554;7.812;2023-08-20T07:09:16;101526.47;;;23.72;100.00
78198;BME280;67472;51.554;7.812;2023-08-20T07:12:02;101512.59;;;23.53;100.00
78198;BME280;67472;51.554;7.812;2023-08-20T07:14:49;101499.53;;;23.57;100.00
78198;BME280;67472;51.554;7.812;2023-08-20T07:17:35;101486.34;;;23.62;100.00
78198;BME280;67472;51.554;7.812;2023-08-20T07:20:22;101490.41;;;23.22;100.00
78198;BME280;67472;51.554;7.812;2023-08-20T07:23:09;101485.25;;;23.06;100.00
78198;BME280;67472;51.554;7.812;2023-08-20T07:26:04;101499.91;;;23.54;100.00
78198;BME280;67472;51.554;7.812;2023-08-20T07:28:50;101484.78;;;23.95;100.00
78198;BME280;67472;51.554;7.812;2023-08-20T07:31:42;101455.69;;;23.70;100.00
78198;BME280;67472;51.554;7.812;2023-08-20T07:34:29;101455.25;;;24.15;100.00
78198;BME280;67472;51.554;7.812;2023-08-20T07:37:16;101447.16;;;24.15;100.00
78198;BME280;67472;51.554;7.812;2023-08-20T07:40:03;101445.75;;;24.19;100.00
78198;BME280;67472;51.554;7.812;2023-08-20T07:42:49;101438.72;;;24.03;100.00
78198;BME280;67472;51.554;7.812;2023-08-20T07:45:36;101424.38;;;23.75;100.00
78198;BME280;67472;51.554;7.812;2023-08-20T07:48:22;101437.88;;;23.75;100.00
78198;BME280;67472;51.554;7.812;2023-08-20T07:51:08;101432.41;;;23.69;100.00
78198;BME280;67472;51.554;7.812;2023-08-20T07:53:55;101436.28;;;23.81;100.00
78198;BME280;67472;51.554;7.812;2023-08-20T07:56:42;101441.91;;;23.86;100.00
78198;BME280;67472;51.554;7.812;2023-08-20T07:59:28;101427.41;;;23.87;100.00
78198;BME280;67472;51.554;7.812;2023-08-20T08:02:15;101436.41;;;24.22;100.00
78198;BME280;67472;51.554;7.812;2023-08-20T08:05:01;101436.00;;;24.52;100.00
78198;BME280;67472;51.554;7.812;2023-08-20T08:07:48;101413.03;;;24.76;100.00
78198;BME280;67472;51.554;7.812;2023-08-20T08:10:35;101407.41;;;24.71;100.00
78198;BME280;67472;51.554;7.812;2023-08-20T08:13:22;101405.72;;;24.70;100.00
78198;BME280;67472;51.554;7.812;2023-08-20T08:16:08;101403.66;;;25.33;100.00
78198;BME280;67472;51.554;7.812;2023-08-20T08:18:55;101377.03;;;25.29;100.00
78198;BME280;67472;51.554;7.812;2023-08-20T08:21:41;101376.63;;;25.39;100.00
78198;BME280;67472;51.554;7.812;2023-08-20T08:24:27;101355.00;;;25.39;100.00
78198;BME280;67472;51.554;7.812;2023-08-20T08:27:15;101372.81;;;25.01;100.00
78198;BME280;67472;51.554;7.812;2023-08-20T08:30:01;101378.25;;;25.14;100.00
78198;BME280;67472;51.554;7.812;2023-08-20T08:32:48;101378.75;;;25.76;100.00
78198;BME280;67472;51.554;7.812;2023-08-20T08:35:34;101350.16;;;26.26;100.00
78198;BME280;67472;51.554;7.812;2023-08-20T08:38:20;101337.91;;;26.68;100.00
78198;BME280;67472;51.554;7.812;2023-08-20T08:41:10;101328.91;;;26.81;100.00
78198;BME280;67472;51.554;7.812;2023-08-20T08:43:58;101320.19;;;26.15;100.00
78198;BME280;67472;51.554;7.812;2023-08-20T08:46:45;101332.69;;;26.16;100.00
78198;BME280;67472;51.554;7.812;2023-08-20T08:49:33;101340.13;;;26.40;100.00
78198;BME280;67472;51.554;7.812;2023-08-20T08:52:21;101320.22;;;26.59;100.00
78198;BME280;67472;51.554;7.812;2023-08-20T08:55:08;101306.81;;;26.26;100.00
78198;BME280;67472;51.554;7.812;2023-08-20T08:57:55;101311.91;;;26.54;100.00
78198;BME280;67472;51.554;7.812;2023-08-20T09:00:42;101302.34;;;26.89;100.00
78198;BME280;67472;51.554;7.812;2023-08-20T09:03:29;101275.75;;;27.29;100.00
78198;BME280;67472;51.554;7.812;2023-08-20T09:06:15;101271.19;;;27.73;100.00
78198;BME280;67472;51.554;7.812;2023-08-20T09:09:04;101263.28;;;27.89;100.00
78198;BME280;67472;51.554;7.812;2023-08-20T09:11:50;101263.69;;;28.11;100.00
78198;BME280;67472;51.554;7.812;2023-08-20T09:14:37;101256.03;;;27.83;100.00
78198;BME280;67472;51.554;7.812;2023-08-20T09:17:26;101262.97;;;27.61;100.00
78198;BME280;67472;51.554;7.812;2023-08-20T09:20:13;101281.28;;;27.41;100.00
78198;BME280;67472;51.554;7.812;2023-08-20T09:22:59;101281.31;;;27.16;100.00
78198;BME280;67472;51.554;7.812;2023-08-20T09:25:45;101276.03;;;27.21;100.00
78198;BME280;67472;51.554;7.812;2023-08-20T09:28:40;101241.84;;;27.14;100.00
78198;BME280;67472;51.554;7.812;2023-08-20T09:31:37;101222.19;;;27.25;100.00
78198;BME280;67472;51.554;7.812;2023-08-20T09:34:25;101231.53;;;27.54;100.00
78198;BME280;67472;51.554;7.812;2023-08-20T09:37:13;101223.91;;;27.62;100.00
78198;BME280;67472;51.554;7.812;2023-08-20T09:39:59;101232.44;;;28.02;100.00
78198;BME280;67472;51.554;7.812;2023-08-20T09:42:47;101236.44;;;27.99;100.00
78198;BME280;67472;51.554;7.812;2023-08-20T09:45:34;101251.50;;;27.95;100.00
78198;BME280;67472;51.554;7.812;2023-08-20T09:48:24;101256.28;;;28.00;100.00
78198;BME280;67472;51.554;7.812;2023-08-20T09:51:13;101251.06;;;27.98;100.00
78198;BME280;67472;51.554;7.812;2023-08-20T09:54:10;101247.31;;;27.99;100.00
78198;BME280;67472;51.554;7.812;2023-08-20T09:57:00;101240.19;;;28.35;100.00
78198;BME280;67472;51.554;7.812;2023-08-20T09:59:47;101251.00;;;28.71;100.00
78198;BME280;67472;51.554;7.812;2023-08-20T10:02:35;101241.38;;;28.98;100.00
78198;BME280;67472;51.554;7.812;2023-08-20T10:05:23;101236.88;;;29.04;100.00
78198;BME280;67472;51.554;7.812;2023-08-20T10:08:10;101241.19;;;28.70;100.00
78198;BME280;67472;51.554;7.812;2023-08-20T10:10:58;101261.88;;;28.71;100.00
78198;BME280;67472;51.554;7.812;2023-08-20T10:13:44;101246.56;;;29.11;99.72
78198;BME280;67472;51.554;7.812;2023-08-20T10:16:32;101241.34;;;28.87;94.89
78198;BME280;67472;51.554;7.812;2023-08-20T10:19:19;101270.22;;;28.40;100.00
78198;BME280;67472;51.554;7.812;2023-08-20T10:22:06;101272.50;;;28.43;100.00
78198;BME280;67472;51.554;7.812;2023-08-20T10:24:54;101261.19;;;28.28;100.00
78198;BME280;67472;51.554;7.812;2023-08-20T10:27:42;101247.75;;;27.78;99.43
78198;BME280;67472;51.554;7.812;2023-08-20T10:30:28;101270.09;;;28.17;100.00
78198;BME280;67472;51.554;7.812;2023-08-20T10:33:15;101241.03;;;28.35;97.60
78198;BME280;67472;51.554;7.812;2023-08-20T10:36:08;101229.41;;;28.88;95.66
78198;BME280;67472;51.554;7.812;2023-08-20T10:38:55;101240.84;;;29.43;98.93
78198;BME280;67472;51.554;7.812;2023-08-20T10:41:44;101237.03;;;29.44;91.45
78198;BME280;67472;51.554;7.812;2023-08-20T10:45:01;101247.94;;;30.18;91.92
78198;BME280;67472;51.554;7.812;2023-08-20T10:47:50;101253.63;;;29.42;99.94
78198;BME280;67472;51.554;7.812;2023-08-20T10:50:36;101250.69;;;28.31;95.76
78198;BME280;67472;51.554;7.812;2023-08-20T10:53:22;101252.63;;;28.42;98.15
78198;BME280;67472;51.554;7.812;2023-08-20T10:56:14;101262.22;;;27.90;100.00
78198;BME280;67472;51.554;7.812;2023-08-20T10:59:05;101252.34;;;27.78;100.00
78198;BME280;67472;51.554;7.812;2023-08-20T11:01:55;101276.25;;;28.12;100.00
78198;BME280;67472;51.554;7.812;2023-08-20T11:04:41;101278.00;;;28.36;100.00
78198;BME280;67472;51.554;7.812;2023-08-20T11:07:28;101251.50;;;28.50;99.54
78198;BME280;67472;51.554;7.812;2023-08-20T11:10:17;101240.69;;;28.43;95.36
78198;BME280;67472;51.554;7.812;2023-08-20T11:13:03;101272.47;;;28.61;100.00
78198;BME280;67472;51.554;7.812;2023-08-20T11:15:52;101268.59;;;28.50;100.00
78198;BME280;67472;51.554;7.812;2023-08-20T11:18:38;101255.81;;;28.39;100.00
78198;BME280;67472;51.554;7.812;2023-08-20T11:21:24;101266.44;;;29.00;100.00
78198;BME280;67472;51.554;7.812;2023-08-20T11:24:12;101255.41;;;29.48;100.00
78198;BME280;67472;51.554;7.812;2023-08-20T11:26:58;101264.25;;;30.02;100.00
78198;BME280;67472;51.554;7.812;2023-08-20T11:29:44;101237.41;;;29.82;95.92
78198;BME280;67472;51.554;7.812;2023-08-20T11:32:31;101251.28;;;29.81;96.12
78198;BME280;67472;51.554;7.812;2023-08-20T11:35:18;101236.81;;;29.68;92.74
78198;BME280;67472;51.554;7.812;2023-08-20T11:38:05;101265.09;;;29.79;100.00
78198;BME280;67472;51.554;7.812;2023-08-20T11:40:51;101238.31;;;29.99;95.22
78198;BME280;67472;51.554;7.812;2023-08-20T11:43:37;101242.78;;;30.05;93.21
78198;BME280;67472;51.554;7.812;2023-08-20T11:46:24;101242.38;;;29.85;95.55
78198;BME280;67472;51.554;7.812;2023-08-20T11:49:12;101239.16;;;29.88;90.35
78198;BME280;67472;51.554;7.812;2023-08-20T11:51:58;101238.91;;;29.90;88.43
78198;BME280;67472;51.554;7.812;2023-08-20T11:54:44;101249.47;;;29.63;91.34
78198;BME280;67472;51.554;7.812;2023-08-20T11:57:31;101248.88;;;29.49;93.95
78198;BME280;67472;51.554;7.812;2023-08-20T12:00:24;101244.25;;;29.85;94.34
78198;BME280;67472;51.554;7.812;2023-08-20T12:03:11;101223.28;;;29.74;87.45
78198;BME280;67472;51.554;7.812;2023-08-20T12:05:59;101216.22;;;29.38;84.26
78198;BME280;67472;51.554;7.812;2023-08-20T12:08:45;101247.94;;;30.18;96.23
78198;BME280;67472;51.554;7.812;2023-08-20T12:11:31;101243.75;;;29.99;91.66
78198;BME280;67472;51.554;7.812;2023-08-20T12:14:18;101225.38;;;30.46;88.06
78198;BME280;67472;51.554;7.812;2023-08-20T12:17:05;101235.59;;;30.39;87.61
78198;BME280;67472;51.554;7.812;2023-08-20T12:19:51;101236.19;;;30.41;90.50
78198;BME280;67472;51.554;7.812;2023-08-20T12:22:39;101248.66;;;29.62;92.28
78198;BME280;67472;51.554;7.812;2023-08-20T12:25:27;101260.47;;;28.80;100.00
78198;BME280;67472;51.554;7.812;2023-08-20T12:28:13;101254.88;;;28.45;100.00
78198;BME280;67472;51.554;7.812;2023-08-20T12:30:59;101249.47;;;28.75;100.00
78198;BME280;67472;51.554;7.812;2023-08-20T12:33:45;101238.41;;;29.00;100.00
78198;BME280;67472;51.554;7.812;2023-08-20T12:36:32;101227.78;;;29.10;96.98
78198;BME280;67472;51.554;7.812;2023-08-20T12:39:19;101207.09;;;29.55;89.55
78198;BME280;67472;51.554;7.812;2023-08-20T12:42:05;101217.38;;;29.88;91.13
78198;BME280;67472;51.554;7.812;2023-08-20T12:44:52;101183.88;;;30.44;80.11
78198;BME280;67472;51.554;7.812;2023-08-20T12:47:39;101197.50;;;31.06;81.33
78198;BME280;67472;51.554;7.812;2023-08-20T12:50:25;101214.44;;;31.24;81.06
78198;BME280;67472;51.554;7.812;2023-08-20T12:53:11;101187.19;;;30.18;77.20
78198;BME280;67472;51.554;7.812;2023-08-20T12:56:00;101210.31;;;31.22;84.57
78198;BME280;67472;51.554;7.812;2023-08-20T12:58:46;101183.69;;;30.96;75.75
78198;BME280;67472;51.554;7.812;2023-08-20T13:01:32;101208.22;;;29.94;84.17
78198;BME280;67472;51.554;7.812;2023-08-20T13:04:18;101215.59;;;29.70;86.07
78198;BME280;67472;51.554;7.812;2023-08-20T13:07:05;101215.38;;;29.37;91.23
78198;BME280;67472;51.554;7.812;2023-08-20T13:09:52;101220.91;;;29.07;96.27
78198;BME280;67472;51.554;7.812;2023-08-20T13:12:41;101221.75;;;29.08;100.00
78198;BME280;67472;51.554;7.812;2023-08-20T13:15:28;101224.38;;;29.26;98.46
78198;BME280;67472;51.554;7.812;2023-08-20T13:18:15;101222.50;;;29.38;97.45
78198;BME280;67472;51.554;7.812;2023-08-20T13:21:01;101218.81;;;29.33;100.00
78198;BME280;67472;51.554;7.812;2023-08-20T13:23:48;101226.75;;;28.70;100.00
78198;BME280;67472;51.554;7.812;2023-08-20T13:26:34;101232.34;;;28.56;100.00
78198;BME280;67472;51.554;7.812;2023-08-20T13:29:22;101236.56;;;28.71;100.00
78198;BME280;67472;51.554;7.812;2023-08-20T13:32:08;101224.03;;;28.70;100.00
78198;BME280;67472;51.554;7.812;2023-08-20T13:34:55;101237.53;;;28.76;100.00
78198;BME280;67472;51.554;7.812;2023-08-20T13:37:41;101228.34;;;29.00;100.00
78198;BME280;67472;51.554;7.812;2023-08-20T13:40:27;101238.53;;;29.05;100.00
78198;BME280;67472;51.554;7.812;2023-08-20T13:43:14;101220.31;;;29.05;100.00
78198;BME280;67472;51.554;7.812;2023-08-20T13:46:01;101233.91;;;29.05;100.00
78198;BME280;67472;51.554;7.812;2023-08-20T13:48:48;101213.56;;;28.96;96.05
78198;BME280;67472;51.554;7.812;2023-08-20T13:51:34;101219.00;;;28.85;97.64
78198;BME280;67472;51.554;7.812;2023-08-20T13:54:20;101238.81;;;28.74;100.00
78198;BME280;67472;51.554;7.812;2023-08-20T13:57:06;101232.25;;;28.63;100.00
78198;BME280;67472;51.554;7.812;2023-08-20T13:59:52;101235.78;;;28.82;100.00
78198;BME280;67472;51.554;7.812;2023-08-20T14:02:40;101225.59;;;28.89;100.00
78198;BME280;67472;51.554;7.812;2023-08-20T14:05:27;101230.56;;;28.80;100.00
78198;BME280;67472;51.554;7.812;2023-08-20T14:08:14;101223.22;;;28.81;100.00
78198;BME280;67472;51.554;7.812;2023-08-20T14:11:00;101213.22;;;28.63;100.00
78198;BME280;67472;51.554;7.812;2023-08-20T14:13:47;101215.53;;;28.78;100.00
78198;BME280;67472;51.554;7.812;2023-08-20T14:16:33;101214.75;;;29.12;100.00
78198;BME280;67472;51.554;7.812;2023-08-20T14:19:20;101213.22;;;29.04;100.00
78198;BME280;67472;51.554;7.812;2023-08-20T14:22:06;101216.41;;;28.90;100.00
78198;BME280;67472;51.554;7.812;2023-08-20T14:24:52;101210.84;;;28.85;100.00